Sinton, TX

04:56 CDT le 28 mai 2015 (GMT -0500)
Ingleside | | Change Station
CLOSE
Current Station
Aéroport
Location: Ingleside,
Altitude: 16 ft
Stations météo à proximité

Alt. 16 ft 27.91 °N, 97.21 °W | Updated 21 minutes ago

Couvert
Couvert
82 ° F
Paraît 90 ° F
N
13
Vent Variable Vent de SE

Aujourd'hui
Haut(e) -- | Bas -- ° F
--% Risque de précip.
Hier
Haut(e) -- | Bas -- ° F
Precip. -- pouce
6:34 AM 8:20 PM
Lune gibbeuse croissante, 74% visible
Pression 29.97 pouce
Visibilité 7.0 Miles terrestres
Nuages Nuages épars 1300 ft
Nuages épars 1900 ft
Nuageux 2600 ft
indice de chaleur 90 ° F
Point de rosée 77 ° F
Humidité 84%
Précipitations 0.00 pouce
Profondeur de la couche neigeuse Non disponible.
UV 0 sur 12
Pollen 6.40 sur 12
Qualité de l'air Non disponible.
Flu Activity Sporadic
METAR KTFP 280935Z AUTO 14011KT 7SM SCT013 SCT019 BKN026 28/25 A2997 RMK AO2 T02770248

More Conditions Fewer Conditions

Pression 29.97 pouce
Visibilité 7.0 Miles terrestres
Nuages Nuages épars 1300 ft
Nuages épars 1900 ft
Nuageux 2600 ft
indice de chaleur 90 ° F
Point de rosée 77 ° F
Humidité 84%
Précipitations 0.00 pouce
Profondeur de la couche neigeuse Non disponible.
UV 0 sur 12
Pollen 6.40 sur 12
Qualité de l'air Non disponible.
Flu Activity Sporadic
METAR KTFP 280935Z AUTO 14011KT 7SM SCT013 SCT019 BKN026 28/25 A2997 RMK AO2 T02770248

More Conditions Fewer Conditions

Nowcast | as of 3:57 am CDT on May 28, 2015

Isolated showers will continue to develop over the coastal waters...coastal Bend and Victoria Crossroads...through 6 am CDT. Rainfall rates will generally not exceed a few hundredths of an inch per hour.

×

10-Day Weather Forecast

Almanac

Astronomie

May. 28, 2015 Lever Coucher
Temps réel
Crépuscule civil
Crépuscule nautique
Crépuscule astronomique
Lune
Durée de lumière visible
Longueur du jour
Tomorrow will be .
, % of the Moon is Illuminated

Extrêmes aujourd'hui

State Highs State Lows

Community

WunderPhotos

Upload Photos

1,824,935 Photos téléchargées !

WunderBlogs® & News

Nearby

Qualité de l'air

  Qualité de l'air Indice de la qualité de l'air Polluant
Not available.

Épaisseur de neige

Station Depth Altitude

Activité sismique

Ville Distance Mag. Time & Date
Minimum magnitude displayed is 2.5.

Températures des eaux côtières

Lieu Température

Stations

Stations météo à proximité

Emplacement de la station Température Refroidissement éolien Point de rosée Humidité Vent Precip. Alt. Mise à jour Type